sensor_id;sensor_type;location;lat;lon;timestamp;pressure;altitude;pressure_sealevel;temperature;humidity
57594;BME280;43423;46.510;6.686;2023-01-28T00:00:54;96434.44;;;-0.76;73.77
57594;BME280;43423;46.510;6.686;2023-01-28T00:03:24;96428.69;;;-0.78;73.80
57594;BME280;43423;46.510;6.686;2023-01-28T00:05:50;96430.56;;;-0.75;73.35
57594;BME280;43423;46.510;6.686;2023-01-28T00:08:16;96432.81;;;-0.70;73.31
57594;BME280;43423;46.510;6.686;2023-01-28T00:10:42;96434.09;;;-0.78;73.25
57594;BME280;43423;46.510;6.686;2023-01-28T00:13:10;96443.66;;;-0.74;73.52
57594;BME280;43423;46.510;6.686;2023-01-28T00:15:36;96439.50;;;-0.82;73.44
57594;BME280;43423;46.510;6.686;2023-01-28T00:18:02;96437.13;;;-0.76;73.59
57594;BME280;43423;46.510;6.686;2023-01-28T00:20:28;96432.06;;;-0.71;73.29
57594;BME280;43423;46.510;6.686;2023-01-28T00:22:53;96438.94;;;-0.66;73.16
57594;BME280;43423;46.510;6.686;2023-01-28T00:25:19;96435.53;;;-0.70;73.52
57594;BME280;43423;46.510;6.686;2023-01-28T00:27:44;96439.47;;;-0.78;73.19
57594;BME280;43423;46.510;6.686;2023-01-28T00:30:10;96443.66;;;-0.74;73.16
57594;BME280;43423;46.510;6.686;2023-01-28T00:32:36;96438.66;;;-0.75;73.14
57594;BME280;43423;46.510;6.686;2023-01-28T00:35:01;96435.97;;;-0.75;73.08
57594;BME280;43423;46.510;6.686;2023-01-28T00:37:27;96437.81;;;-0.69;73.05
57594;BME280;43423;46.510;6.686;2023-01-28T00:39:52;96437.06;;;-0.69;72.79
57594;BME280;43423;46.510;6.686;2023-01-28T00:42:18;96437.84;;;-0.72;72.72
57594;BME280;43423;46.510;6.686;2023-01-28T00:44:43;96443.94;;;-0.65;72.57
57594;BME280;43423;46.510;6.686;2023-01-28T00:47:09;96446.72;;;-0.72;72.81
57594;BME280;43423;46.510;6.686;2023-01-28T00:49:34;96437.50;;;-0.74;72.78
57594;BME280;43423;46.510;6.686;2023-01-28T00:52:00;96431.69;;;-0.73;72.98
57594;BME280;43423;46.510;6.686;2023-01-28T00:54:25;96422.41;;;-0.72;72.44
57594;BME280;43423;46.510;6.686;2023-01-28T00:56:51;96422.22;;;-0.58;72.03
57594;BME280;43423;46.510;6.686;2023-01-28T00:59:19;96427.03;;;-0.72;72.55
57594;BME280;43423;46.510;6.686;2023-01-28T01:01:45;96439.44;;;-0.75;72.55
57594;BME280;43423;46.510;6.686;2023-01-28T01:04:10;96430.44;;;-0.65;72.80
57594;BME280;43423;46.510;6.686;2023-01-28T01:06:38;96430.13;;;-0.70;72.79
57594;BME280;43423;46.510;6.686;2023-01-28T01:09:06;96416.97;;;-0.68;72.43
57594;BME280;43423;46.510;6.686;2023-01-28T01:11:32;96412.50;;;-0.78;71.99
57594;BME280;43423;46.510;6.686;2023-01-28T01:13:59;96420.97;;;-0.80;72.40
57594;BME280;43423;46.510;6.686;2023-01-28T01:16:28;96422.91;;;-0.80;72.13
57594;BME280;43423;46.510;6.686;2023-01-28T01:18:54;96420.97;;;-0.80;72.59
57594;BME280;43423;46.510;6.686;2023-01-28T01:21:23;96422.91;;;-0.80;72.62
57594;BME280;43423;46.510;6.686;2023-01-28T01:23:50;96418.91;;;-0.69;72.44
57594;BME280;43423;46.510;6.686;2023-01-28T01:26:16;96408.16;;;-0.72;72.54
57594;BME280;43423;46.510;6.686;2023-01-28T01:28:42;96420.09;;;-0.70;72.25
57594;BME280;43423;46.510;6.686;2023-01-28T01:31:13;96422.38;;;-0.68;71.85
57594;BME280;43423;46.510;6.686;2023-01-28T01:33:41;96423.97;;;-0.71;72.07
57594;BME280;43423;46.510;6.686;2023-01-28T01:36:07;96430.97;;;-0.77;71.64
57594;BME280;43423;46.510;6.686;2023-01-28T01:38:33;96424.00;;;-0.74;72.08
57594;BME280;43423;46.510;6.686;2023-01-28T01:41:01;96439.03;;;-0.73;72.22
57594;BME280;43423;46.510;6.686;2023-01-28T01:43:56;96427.50;;;-0.77;72.18
57594;BME280;43423;46.510;6.686;2023-01-28T01:46:31;96435.56;;;-0.74;72.17
57594;BME280;43423;46.510;6.686;2023-01-28T01:49:05;96433.97;;;-0.71;72.38
57594;BME280;43423;46.510;6.686;2023-01-28T01:51:33;96430.84;;;-0.66;71.61
57594;BME280;43423;46.510;6.686;2023-01-28T01:53:59;96431.25;;;-0.68;71.79
57594;BME280;43423;46.510;6.686;2023-01-28T01:56:30;96425.41;;;-0.63;71.90
57594;BME280;43423;46.510;6.686;2023-01-28T01:58:56;96430.06;;;-0.67;71.44
57594;BME280;43423;46.510;6.686;2023-01-28T02:01:25;96425.00;;;-0.61;71.64
57594;BME280;43423;46.510;6.686;2023-01-28T02:04:03;96427.59;;;-0.54;71.32
57594;BME280;43423;46.510;6.686;2023-01-28T02:06:31;96427.97;;;-0.52;71.50
57594;BME280;43423;46.510;6.686;2023-01-28T02:08:56;96430.75;;;-0.59;71.48
57594;BME280;43423;46.510;6.686;2023-01-28T02:11:26;96419.84;;;-0.52;70.93
57594;BME280;43423;46.510;6.686;2023-01-28T02:13:54;96421.78;;;-0.52;71.24
57594;BME280;43423;46.510;6.686;2023-01-28T02:16:22;96422.16;;;-0.50;71.45
57594;BME280;43423;46.510;6.686;2023-01-28T02:18:48;96418.31;;;-0.53;71.26
57594;BME280;43423;46.510;6.686;2023-01-28T02:24:18;96416.75;;;-0.50;71.06
57594;BME280;43423;46.510;6.686;2023-01-28T02:27:02;96428.81;;;-0.59;71.25
57594;BME280;43423;46.510;6.686;2023-01-28T02:29:38;96423.91;;;-0.67;71.63
57594;BME280;43423;46.510;6.686;2023-01-28T02:32:16;96414.97;;;-0.64;71.21
57594;BME280;43423;46.510;6.686;2023-01-28T02:34:51;96407.72;;;-0.67;71.81
57594;BME280;43423;46.510;6.686;2023-01-28T02:37:24;96416.56;;;-0.67;71.22
57594;BME280;43423;46.510;6.686;2023-01-28T02:39:55;96410.66;;;-0.58;71.25
57594;BME280;43423;46.510;6.686;2023-01-28T02:42:25;96416.63;;;-0.70;71.31
57594;BME280;43423;46.510;6.686;2023-01-28T02:44:52;96423.16;;;-0.71;71.74
57594;BME280;43423;46.510;6.686;2023-01-28T02:47:17;96418.25;;;-0.76;71.80
57594;BME280;43423;46.510;6.686;2023-01-28T02:50:04;96424.00;;;-0.74;72.29
57594;BME280;43423;46.510;6.686;2023-01-28T02:55:50;96422.53;;;-0.79;71.96
57594;BME280;43423;46.510;6.686;2023-01-28T02:58:28;96419.31;;;-0.70;72.02
57594;BME280;43423;46.510;6.686;2023-01-28T03:06:18;96414.03;;;-0.81;71.99
57594;BME280;43423;46.510;6.686;2023-01-28T03:09:12;96418.25;;;-0.76;72.02
57594;BME280;43423;46.510;6.686;2023-01-28T03:12:15;96415.94;;;-0.78;71.90
57594;BME280;43423;46.510;6.686;2023-01-28T03:15:06;96414.09;;;-0.85;71.67
57594;BME280;43423;46.510;6.686;2023-01-28T03:18:01;96412.91;;;-0.83;72.12
57594;BME280;43423;46.510;6.686;2023-01-28T03:23:53;96414.81;;;-0.80;71.71
57594;BME280;43423;46.510;6.686;2023-01-28T03:29:42;96406.75;;;-0.84;71.22
57594;BME280;43423;46.510;6.686;2023-01-28T03:32:29;96407.25;;;-0.93;71.48
57594;BME280;43423;46.510;6.686;2023-01-28T03:35:15;96415.28;;;-0.89;71.53
57594;BME280;43423;46.510;6.686;2023-01-28T03:38:03;96410.25;;;-0.87;71.73
57594;BME280;43423;46.510;6.686;2023-01-28T03:41:00;96414.03;;;-0.81;71.69
57594;BME280;43423;46.510;6.686;2023-01-28T03:43:30;96404.91;;;-0.91;71.58
57594;BME280;43423;46.510;6.686;2023-01-28T03:45:56;96412.50;;;-0.78;71.29
57594;BME280;43423;46.510;6.686;2023-01-28T03:48:24;96407.59;;;-0.91;71.63
57594;BME280;43423;46.510;6.686;2023-01-28T03:50:51;96414.88;;;-0.88;71.41
57594;BME280;43423;46.510;6.686;2023-01-28T03:53:17;96409.50;;;-0.88;71.42
57594;BME280;43423;46.510;6.686;2023-01-28T03:55:44;96418.69;;;-0.81;71.66
57594;BME280;43423;46.510;6.686;2023-01-28T03:58:11;96407.19;;;-0.89;71.83
57594;BME280;43423;46.510;6.686;2023-01-28T04:00:38;96420.25;;;-0.84;72.24
57594;BME280;43423;46.510;6.686;2023-01-28T04:03:15;96418.72;;;-0.85;72.24
57594;BME280;43423;46.510;6.686;2023-01-28T04:05:43;96409.53;;;-0.91;71.95
57594;BME280;43423;46.510;6.686;2023-01-28T04:08:09;96414.81;;;-0.80;71.99
57594;BME280;43423;46.510;6.686;2023-01-28T04:10:34;96409.53;;;-0.91;72.03
57594;BME280;43423;46.510;6.686;2023-01-28T04:13:00;96403.81;;;-0.97;72.22
57594;BME280;43423;46.510;6.686;2023-01-28T04:15:25;96424.16;;;-0.89;72.42
57594;BME280;43423;46.510;6.686;2023-01-28T04:17:51;96424.16;;;-0.89;72.19
57594;BME280;43423;46.510;6.686;2023-01-28T04:20:16;96421.50;;;-0.92;72.40
57594;BME280;43423;46.510;6.686;2023-01-28T04:22:42;96421.59;;;-0.99;72.18
57594;BME280;43423;46.510;6.686;2023-01-28T04:25:08;96431.13;;;-0.91;72.10
57594;BME280;43423;46.510;6.686;2023-01-28T04:27:34;96428.03;;;-0.90;72.13
57594;BME280;43423;46.510;6.686;2023-01-28T04:29:59;96414.88;;;-0.88;71.92
57594;BME280;43423;46.510;6.686;2023-01-28T04:32:25;96417.69;;;-0.95;72.47
57594;BME280;43423;46.510;6.686;2023-01-28T04:34:50;96419.72;;;-1.02;72.88
57594;BME280;43423;46.510;6.686;2023-01-28T04:37:16;96426.59;;;-0.98;72.73
57594;BME280;43423;46.510;6.686;2023-01-28T04:39:42;96431.22;;;-0.98;72.98
57594;BME280;43423;46.510;6.686;2023-01-28T04:42:08;96443.50;;;-0.94;72.69
57594;BME280;43423;46.510;6.686;2023-01-28T04:44:33;96443.47;;;-0.90;72.44
57594;BME280;43423;46.510;6.686;2023-01-28T04:46:59;96440.81;;;-0.94;72.98
57594;BME280;43423;46.510;6.686;2023-01-28T04:49:24;96444.97;;;-0.86;72.77
57594;BME280;43423;46.510;6.686;2023-01-28T04:51:50;96444.22;;;-0.90;72.53
57594;BME280;43423;46.510;6.686;2023-01-28T04:54:15;96443.44;;;-0.87;72.43
57594;BME280;43423;46.510;6.686;2023-01-28T04:56:41;96453.13;;;-0.93;73.25
57594;BME280;43423;46.510;6.686;2023-01-28T04:59:06;96444.63;;;-0.91;72.50
57594;BME280;43423;46.510;6.686;2023-01-28T05:01:33;96451.47;;;-0.83;72.80
57594;BME280;43423;46.510;6.686;2023-01-28T05:03:58;96442.63;;;-0.83;73.03
57594;BME280;43423;46.510;6.686;2023-01-28T05:06:32;96442.63;;;-0.83;72.66
57594;BME280;43423;46.510;6.686;2023-01-28T05:08:58;96449.53;;;-0.79;72.79
57594;BME280;43423;46.510;6.686;2023-01-28T05:11:23;96446.09;;;-0.83;72.48
57594;BME280;43423;46.510;6.686;2023-01-28T05:13:49;96445.25;;;-0.76;72.50
57594;BME280;43423;46.510;6.686;2023-01-28T05:16:16;96441.53;;;-0.90;72.59
57594;BME280;43423;46.510;6.686;2023-01-28T05:18:41;96454.59;;;-0.85;72.58
57594;BME280;43423;46.510;6.686;2023-01-28T05:21:08;96447.66;;;-0.86;72.71
57594;BME280;43423;46.510;6.686;2023-01-28T05:23:33;96445.75;;;-0.89;72.86
57594;BME280;43423;46.510;6.686;2023-01-28T05:25:59;96451.47;;;-0.83;72.65
57594;BME280;43423;46.510;6.686;2023-01-28T05:28:24;96446.50;;;-0.85;72.94
57594;BME280;43423;46.510;6.686;2023-01-28T05:30:50;96450.66;;;-0.80;73.20
57594;BME280;43423;46.510;6.686;2023-01-28T05:33:15;96440.69;;;-0.83;72.78
57594;BME280;43423;46.510;6.686;2023-01-28T05:35:42;96448.38;;;-0.81;72.88
57594;BME280;43423;46.510;6.686;2023-01-28T05:38:07;96446.03;;;-0.79;72.79
57594;BME280;43423;46.510;6.686;2023-01-28T05:40:33;96469.56;;;-0.80;72.52
57594;BME280;43423;46.510;6.686;2023-01-28T05:42:58;96459.16;;;-0.81;72.70
57594;BME280;43423;46.510;6.686;2023-01-28T05:45:25;96465.34;;;-0.81;72.64
57594;BME280;43423;46.510;6.686;2023-01-28T05:47:50;96468.09;;;-0.85;72.27
57594;BME280;43423;46.510;6.686;2023-01-28T05:50:16;96462.69;;;-0.85;72.93
57594;BME280;43423;46.510;6.686;2023-01-28T05:52:41;96473.47;;;-0.85;73.42
57594;BME280;43423;46.510;6.686;2023-01-28T05:55:07;96458.00;;;-0.80;72.66
57594;BME280;43423;46.510;6.686;2023-01-28T05:57:33;96466.84;;;-0.76;72.29
57594;BME280;43423;46.510;6.686;2023-01-28T05:59:59;96469.19;;;-0.78;72.43
57594;BME280;43423;46.510;6.686;2023-01-28T06:02:24;96476.59;;;-0.86;72.56
57594;BME280;43423;46.510;6.686;2023-01-28T06:04:50;96477.66;;;-0.80;72.83
57594;BME280;43423;46.510;6.686;2023-01-28T06:07:15;96481.22;;;-0.87;73.20
57594;BME280;43423;46.510;6.686;2023-01-28T06:09:45;96475.44;;;-0.89;73.44
57594;BME280;43423;46.510;6.686;2023-01-28T06:12:12;96486.31;;;-0.96;73.65
57594;BME280;43423;46.510;6.686;2023-01-28T06:14:38;96500.47;;;-0.85;73.15
57594;BME280;43423;46.510;6.686;2023-01-28T06:17:03;96496.59;;;-0.83;73.06
57594;BME280;43423;46.510;6.686;2023-01-28T06:19:29;96493.50;;;-0.82;73.39
57594;BME280;43423;46.510;6.686;2023-01-28T06:21:54;96499.22;;;-0.76;73.34
57594;BME280;43423;46.510;6.686;2023-01-28T06:24:20;96507.25;;;-0.69;73.01
57594;BME280;43423;46.510;6.686;2023-01-28T06:26:45;96501.53;;;-0.75;73.37
57594;BME280;43423;46.510;6.686;2023-01-28T06:29:11;96500.44;;;-0.81;73.20
57594;BME280;43423;46.510;6.686;2023-01-28T06:31:36;96498.91;;;-0.82;73.12
57594;BME280;43423;46.510;6.686;2023-01-28T06:34:02;96502.91;;;-0.94;73.64
57594;BME280;43423;46.510;6.686;2023-01-28T06:36:27;96515.16;;;-0.89;73.85
57594;BME280;43423;46.510;6.686;2023-01-28T06:38:53;96511.34;;;-0.92;73.77
57594;BME280;43423;46.510;6.686;2023-01-28T06:41:19;96503.25;;;-0.92;73.75
57594;BME280;43423;46.510;6.686;2023-01-28T06:43:44;96508.94;;;-0.82;73.26
57594;BME280;43423;46.510;6.686;2023-01-28T06:46:10;96505.13;;;-0.85;73.01
57594;BME280;43423;46.510;6.686;2023-01-28T06:48:35;96512.31;;;-0.75;72.89
57594;BME280;43423;46.510;6.686;2023-01-28T06:51:01;96502.81;;;-0.87;72.53
57594;BME280;43423;46.510;6.686;2023-01-28T06:53:26;96513.50;;;-0.76;72.98
57594;BME280;43423;46.510;6.686;2023-01-28T06:55:52;96515.88;;;-0.81;72.80
57594;BME280;43423;46.510;6.686;2023-01-28T06:58:17;96524.69;;;-0.77;73.06
57594;BME280;43423;46.510;6.686;2023-01-28T07:00:43;96517.44;;;-0.84;73.43
57594;BME280;43423;46.510;6.686;2023-01-28T07:03:08;96525.06;;;-0.75;72.50
57594;BME280;43423;46.510;6.686;2023-01-28T07:05:34;96530.53;;;-0.82;72.96
57594;BME280;43423;46.510;6.686;2023-01-28T07:08:00;96527.84;;;-0.82;73.32
57594;BME280;43423;46.510;6.686;2023-01-28T07:10:26;96525.81;;;-0.75;72.51
57594;BME280;43423;46.510;6.686;2023-01-28T07:12:52;96531.56;;;-0.69;73.06
57594;BME280;43423;46.510;6.686;2023-01-28T07:15:17;96532.81;;;-0.81;73.36
57594;BME280;43423;46.510;6.686;2023-01-28T07:17:43;96533.59;;;-0.80;74.51
57594;BME280;43423;46.510;6.686;2023-01-28T07:20:12;96534.06;;;-0.89;73.62
57594;BME280;43423;46.510;6.686;2023-01-28T07:22:40;96532.88;;;-0.85;74.09
57594;BME280;43423;46.510;6.686;2023-01-28T07:25:07;96535.16;;;-0.83;73.92
57594;BME280;43423;46.510;6.686;2023-01-28T07:27:33;96522.50;;;-0.90;74.59
57594;BME280;43423;46.510;6.686;2023-01-28T07:29:58;96522.50;;;-0.90;74.06
57594;BME280;43423;46.510;6.686;2023-01-28T07:32:24;96539.72;;;-0.76;74.39
57594;BME280;43423;46.510;6.686;2023-01-28T07:34:52;96528.25;;;-0.88;74.30
57594;BME280;43423;46.510;6.686;2023-01-28T07:37:18;96545.97;;;-0.83;74.95
57594;BME280;43423;46.510;6.686;2023-01-28T07:39:44;96551.31;;;-0.79;74.30
57594;BME280;43423;46.510;6.686;2023-01-28T07:42:09;96518.75;;;-0.99;74.47
57594;BME280;43423;46.510;6.686;2023-01-28T07:44:35;96544.03;;;-0.82;74.57
57594;BME280;43423;46.510;6.686;2023-01-28T07:47:02;96553.31;;;-0.83;74.55
57594;BME280;43423;46.510;6.686;2023-01-28T07:49:28;96559.47;;;-0.83;74.14
57594;BME280;43423;46.510;6.686;2023-01-28T07:51:53;96527.63;;;-0.99;74.79
57594;BME280;43423;46.510;6.686;2023-01-28T07:54:19;96555.94;;;-0.80;74.30
57594;BME280;43423;46.510;6.686;2023-01-28T07:56:44;96552.09;;;-0.79;74.37
57594;BME280;43423;46.510;6.686;2023-01-28T07:59:10;96557.47;;;-0.75;74.01
57594;BME280;43423;46.510;6.686;2023-01-28T08:01:36;96555.03;;;-0.66;73.49
57594;BME280;43423;46.510;6.686;2023-01-28T08:04:01;96571.94;;;-0.59;73.04
57594;BME280;43423;46.510;6.686;2023-01-28T08:06:27;96577.63;;;-0.49;72.76
57594;BME280;43423;46.510;6.686;2023-01-28T08:08:53;96579.81;;;-0.37;72.90
57594;BME280;43423;46.510;6.686;2023-01-28T08:11:19;96580.03;;;-0.24;72.38
57594;BME280;43423;46.510;6.686;2023-01-28T08:13:45;96583.81;;;-0.15;71.38
57594;BME280;43423;46.510;6.686;2023-01-28T08:16:11;96591.78;;;-0.04;70.98
57594;BME280;43423;46.510;6.686;2023-01-28T08:18:36;96588.31;;;-0.05;71.28
57594;BME280;43423;46.510;6.686;2023-01-28T08:21:02;96595.00;;;-0.16;71.39
57594;BME280;43423;46.510;6.686;2023-01-28T08:23:29;96591.16;;;-0.15;71.15
57594;BME280;43423;46.510;6.686;2023-01-28T08:25:57;96602.69;;;-0.11;70.84
57594;BME280;43423;46.510;6.686;2023-01-28T08:28:23;96600.75;;;-0.11;71.61
57594;BME280;43423;46.510;6.686;2023-01-28T08:30:49;96589.94;;;-0.11;71.57
57594;BME280;43423;46.510;6.686;2023-01-28T08:33:15;96598.38;;;-0.05;70.75
57594;BME280;43423;46.510;6.686;2023-01-28T08:35:41;96598.13;;;0.13;70.62
57594;BME280;43423;46.510;6.686;2023-01-28T08:38:07;96606.00;;;0.31;70.82
57594;BME280;43423;46.510;6.686;2023-01-28T08:40:34;96610.25;;;0.32;70.02
57594;BME280;43423;46.510;6.686;2023-01-28T08:42:59;96603.78;;;0.25;70.29
57594;BME280;43423;46.510;6.686;2023-01-28T08:45:27;96604.81;;;0.32;70.24
57594;BME280;43423;46.510;6.686;2023-01-28T08:47:58;96608.19;;;0.39;69.91
57594;BME280;43423;46.510;6.686;2023-01-28T08:50:25;96620.44;;;0.51;70.23
57594;BME280;43423;46.510;6.686;2023-01-28T08:52:56;96618.63;;;0.68;69.20
57594;BME280;43423;46.510;6.686;2023-01-28T08:55:23;96609.81;;;0.64;69.40
57594;BME280;43423;46.510;6.686;2023-01-28T08:57:48;96626.00;;;0.67;70.11
57594;BME280;43423;46.510;6.686;2023-01-28T09:00:16;96623.72;;;0.62;70.03
57594;BME280;43423;46.510;6.686;2023-01-28T09:02:42;96617.09;;;0.67;69.83
57594;BME280;43423;46.510;6.686;2023-01-28T09:05:08;96629.16;;;0.89;68.60
57594;BME280;43423;46.510;6.686;2023-01-28T09:07:34;96623.09;;;1.05;68.33
57594;BME280;43423;46.510;6.686;2023-01-28T09:10:00;96622.56;;;0.90;68.62
57594;BME280;43423;46.510;6.686;2023-01-28T09:12:25;96620.19;;;0.92;69.01
57594;BME280;43423;46.510;6.686;2023-01-28T09:14:51;96616.03;;;0.88;69.00
57594;BME280;43423;46.510;6.686;2023-01-28T09:17:18;96624.16;;;1.11;68.47
57594;BME280;43423;46.510;6.686;2023-01-28T09:19:44;96620.63;;;1.14;68.47
57594;BME280;43423;46.510;6.686;2023-01-28T09:22:09;96630.63;;;1.17;68.58
57594;BME280;43423;46.510;6.686;2023-01-28T09:24:35;96642.47;;;1.03;68.84
57594;BME280;43423;46.510;6.686;2023-01-28T09:27:00;96635.00;;;1.11;68.51
57594;BME280;43423;46.510;6.686;2023-01-28T09:29:26;96641.66;;;1.06;68.55
57594;BME280;43423;46.510;6.686;2023-01-28T09:31:51;96664.53;;;1.25;68.67
57594;BME280;43423;46.510;6.686;2023-01-28T09:34:17;96652.91;;;1.28;67.69
57594;BME280;43423;46.510;6.686;2023-01-28T09:36:42;96656.78;;;1.51;68.03
57594;BME280;43423;46.510;6.686;2023-01-28T09:39:08;96669.81;;;1.79;66.46
57594;BME280;43423;46.510;6.686;2023-01-28T09:46:51;96674.38;;;2.26;64.75
57594;BME280;43423;46.510;6.686;2023-01-28T09:49:23;96677.78;;;2.49;64.70
57594;BME280;43423;46.510;6.686;2023-01-28T09:51:55;96669.97;;;2.51;64.38
57594;BME280;43423;46.510;6.686;2023-01-28T09:57:10;96685.88;;;2.13;64.14
57594;BME280;43423;46.510;6.686;2023-01-28T09:59:37;96678.69;;;2.23;65.58
57594;BME280;43423;46.510;6.686;2023-01-28T10:04:57;96695.72;;;2.63;63.31
57594;BME280;43423;46.510;6.686;2023-01-28T10:10:16;96684.38;;;2.29;64.05
57594;BME280;43423;46.510;6.686;2023-01-28T10:13:16;96684.94;;;2.20;64.19
57594;BME280;43423;46.510;6.686;2023-01-28T10:15:53;96682.19;;;1.80;64.08
57594;BME280;43423;46.510;6.686;2023-01-28T10:18:44;96686.06;;;1.59;65.94
57594;BME280;43423;46.510;6.686;2023-01-28T10:21:36;96677.06;;;1.66;66.89
57594;BME280;43423;46.510;6.686;2023-01-28T10:24:16;96680.34;;;1.54;66.28
57594;BME280;43423;46.510;6.686;2023-01-28T10:26:43;96677.34;;;1.48;65.99
57594;BME280;43423;46.510;6.686;2023-01-28T10:29:16;96691.31;;;1.47;66.23
57594;BME280;43423;46.510;6.686;2023-01-28T10:31:51;96692.47;;;1.22;67.42
57594;BME280;43423;46.510;6.686;2023-01-28T10:34:18;96695.47;;;1.28;67.36
57594;BME280;43423;46.510;6.686;2023-01-28T10:36:43;96691.69;;;1.22;67.60
57594;BME280;43423;46.510;6.686;2023-01-28T10:39:13;96684.34;;;1.22;67.02
57594;BME280;43423;46.510;6.686;2023-01-28T10:41:39;96685.22;;;1.16;66.91
57594;BME280;43423;46.510;6.686;2023-01-28T10:44:05;96680.53;;;0.93;67.66
57594;BME280;43423;46.510;6.686;2023-01-28T10:46:35;96687.53;;;0.90;67.28
57594;BME280;43423;46.510;6.686;2023-01-28T10:49:24;96683.91;;;0.73;67.63
57594;BME280;43423;46.510;6.686;2023-01-28T10:51:51;96687.28;;;0.81;68.04
57594;BME280;43423;46.510;6.686;2023-01-28T10:54:22;96687.88;;;0.92;67.79
57594;BME280;43423;46.510;6.686;2023-01-28T10:56:54;96690.66;;;0.89;68.13
57594;BME280;43423;46.510;6.686;2023-01-28T11:01:57;96688.28;;;0.91;67.94
57594;BME280;43423;46.510;6.686;2023-01-28T11:04:28;96696.66;;;1.00;68.15
57594;BME280;43423;46.510;6.686;2023-01-28T11:09:27;96694.72;;;1.27;67.56
57594;BME280;43423;46.510;6.686;2023-01-28T11:11:53;96688.78;;;1.36;66.64
57594;BME280;43423;46.510;6.686;2023-01-28T11:14:20;96687.53;;;1.40;66.82
57594;BME280;43423;46.510;6.686;2023-01-28T11:16:47;96696.03;;;1.43;67.08
57594;BME280;43423;46.510;6.686;2023-01-28T11:19:13;96686.72;;;1.44;66.45
57594;BME280;43423;46.510;6.686;2023-01-28T11:21:47;96693.88;;;1.30;66.11
57594;BME280;43423;46.510;6.686;2023-01-28T11:24:16;96695.84;;;1.30;65.80
57594;BME280;43423;46.510;6.686;2023-01-28T11:26:49;96693.31;;;1.19;67.24
57594;BME280;43423;46.510;6.686;2023-01-28T11:29:38;96698.00;;;1.15;66.96
57594;BME280;43423;46.510;6.686;2023-01-28T11:32:04;96689.94;;;1.11;67.35
57594;BME280;43423;46.510;6.686;2023-01-28T11:34:33;96695.63;;;1.17;67.41
57594;BME280;43423;46.510;6.686;2023-01-28T11:37:13;96690.75;;;1.08;67.09
57594;BME280;43423;46.510;6.686;2023-01-28T11:39:43;96697.34;;;1.07;67.53
57594;BME280;43423;46.510;6.686;2023-01-28T11:42:16;96691.41;;;1.16;68.65
57594;BME280;43423;46.510;6.686;2023-01-28T11:44:43;96692.13;;;1.20;66.62
57594;BME280;43423;46.510;6.686;2023-01-28T11:47:18;96694.94;;;1.13;67.34
57594;BME280;43423;46.510;6.686;2023-01-28T11:49:59;96692.16;;;1.17;67.25
57594;BME280;43423;46.510;6.686;2023-01-28T11:55:48;96685.63;;;1.14;67.63
57594;BME280;43423;46.510;6.686;2023-01-28T12:09:06;96698.97;;;1.01;66.75
57594;BME280;43423;46.510;6.686;2023-01-28T12:11:49;96696.56;;;1.07;67.91
57594;BME280;43423;46.510;6.686;2023-01-28T12:27:38;96701.13;;;1.14;66.04
57594;BME280;43423;46.510;6.686;2023-01-28T12:38:06;96687.91;;;1.16;66.01
57594;BME280;43423;46.510;6.686;2023-01-28T12:40:46;96688.38;;;1.10;66.00
57594;BME280;43423;46.510;6.686;2023-01-28T12:43:19;96681.31;;;1.17;66.35
57594;BME280;43423;46.510;6.686;2023-01-28T12:45:53;96688.53;;;1.27;65.07
57594;BME280;43423;46.510;6.686;2023-01-28T12:50:53;96688.56;;;1.23;65.36
57594;BME280;43423;46.510;6.686;2023-01-28T12:53:52;96691.75;;;1.18;65.05
57594;BME280;43423;46.510;6.686;2023-01-28T12:56:22;96700.28;;;1.17;65.38
57594;BME280;43423;46.510;6.686;2023-01-28T12:59:01;96706.34;;;1.24;66.52
57594;BME280;43423;46.510;6.686;2023-01-28T13:01:38;96706.06;;;1.19;64.91
57594;BME280;43423;46.510;6.686;2023-01-28T13:06:37;96706.97;;;1.35;65.25
57594;BME280;43423;46.510;6.686;2023-01-28T13:09:19;96714.06;;;1.26;64.87
57594;BME280;43423;46.510;6.686;2023-01-28T13:11:48;96722.25;;;1.22;65.54
57594;BME280;43423;46.510;6.686;2023-01-28T13:14:15;96710.06;;;1.34;65.02
57594;BME280;43423;46.510;6.686;2023-01-28T13:16:42;96719.75;;;1.35;65.29
57594;BME280;43423;46.510;6.686;2023-01-28T13:21:42;96711.91;;;1.40;64.90
57594;BME280;43423;46.510;6.686;2023-01-28T13:31:42;96718.16;;;1.37;64.68
57594;BME280;43423;46.510;6.686;2023-01-28T13:37:14;96726.75;;;1.32;64.94
57594;BME280;43423;46.510;6.686;2023-01-28T13:39:47;96732.41;;;1.42;65.06
57594;BME280;43423;46.510;6.686;2023-01-28T13:42:28;96732.81;;;1.40;64.97
57594;BME280;43423;46.510;6.686;2023-01-28T13:44:55;96741.59;;;1.48;64.91
57594;BME280;43423;46.510;6.686;2023-01-28T13:47:33;96753.28;;;1.45;64.26
57594;BME280;43423;46.510;6.686;2023-01-28T13:50:12;96747.25;;;1.57;63.75
57594;BME280;43423;46.510;6.686;2023-01-28T13:55:21;96753.63;;;1.47;64.04
57594;BME280;43423;46.510;6.686;2023-01-28T13:58:11;96747.78;;;1.48;64.38
57594;BME280;43423;46.510;6.686;2023-01-28T14:09:22;96746.16;;;1.78;63.44
57594;BME280;43423;46.510;6.686;2023-01-28T14:12:24;96753.72;;;2.10;61.44
57594;BME280;43423;46.510;6.686;2023-01-28T14:15:18;96759.78;;;1.74;62.82
57594;BME280;43423;46.510;6.686;2023-01-28T14:17:50;96760.25;;;1.69;62.92
57594;BME280;43423;46.510;6.686;2023-01-28T14:20:22;96762.53;;;1.47;62.63
57594;BME280;43423;46.510;6.686;2023-01-28T14:22:51;96764.03;;;1.48;63.12
57594;BME280;43423;46.510;6.686;2023-01-28T14:25:38;96760.69;;;1.40;64.41
57594;BME280;43423;46.510;6.686;2023-01-28T14:28:21;96759.97;;;1.36;64.27
57594;BME280;43423;46.510;6.686;2023-01-28T14:30:53;96758.59;;;1.25;63.30
57594;BME280;43423;46.510;6.686;2023-01-28T14:33:21;96763.97;;;1.28;64.48
57594;BME280;43423;46.510;6.686;2023-01-28T14:35:48;96769.38;;;1.28;64.73
57594;BME280;43423;46.510;6.686;2023-01-28T14:38:20;96771.59;;;1.37;63.97
57594;BME280;43423;46.510;6.686;2023-01-28T14:40:51;96766.44;;;1.19;64.08
57594;BME280;43423;46.510;6.686;2023-01-28T14:43:21;96769.75;;;1.30;64.59
57594;BME280;43423;46.510;6.686;2023-01-28T14:58:40;96772.91;;;0.98;64.92
57594;BME280;43423;46.510;6.686;2023-01-28T15:01:20;96768.16;;;1.06;64.40
57594;BME280;43423;46.510;6.686;2023-01-28T15:03:46;96771.00;;;0.95;64.28
57594;BME280;43423;46.510;6.686;2023-01-28T15:06:14;96780.34;;;0.91;64.50
57594;BME280;43423;46.510;6.686;2023-01-28T15:08:40;96771.78;;;0.96;65.27
57594;BME280;43423;46.510;6.686;2023-01-28T15:11:14;96774.56;;;0.89;64.91